createdAt,value
2019-03-27T00:01:25.562Z,10.10
2019-03-27T00:03:53.781Z,8.27
2019-03-27T00:06:22.033Z,8.97
2019-03-27T00:08:50.249Z,7.80
2019-03-27T00:11:18.506Z,11.20
2019-03-27T00:13:46.717Z,6.07
2019-03-27T00:16:14.978Z,10.23
2019-03-27T00:18:43.193Z,8.40
2019-03-27T00:21:11.514Z,10.00
2019-03-27T00:23:39.795Z,9.00
2019-03-27T00:26:08.041Z,8.57
2019-03-27T00:28:36.292Z,9.00
2019-03-27T00:31:04.595Z,11.13
2019-03-27T00:33:32.841Z,9.67
2019-03-27T00:36:01.065Z,11.17
2019-03-27T00:38:29.308Z,10.40
2019-03-27T00:40:57.597Z,10.53
2019-03-27T00:43:25.841Z,8.93
2019-03-27T00:45:54.069Z,10.77
2019-03-27T00:48:22.317Z,11.33
2019-03-27T00:50:50.543Z,11.27
2019-03-27T00:53:18.786Z,9.07
2019-03-27T00:55:47.005Z,10.03
2019-03-27T00:58:15.257Z,10.90
2019-03-27T01:00:45.017Z,9.03
2019-03-27T01:03:13.332Z,10.27
2019-03-27T01:05:41.548Z,6.73
2019-03-27T01:08:09.792Z,9.20
2019-03-27T01:10:38.018Z,12.33
2019-03-27T01:13:06.344Z,11.13
2019-03-27T01:15:40.003Z,8.63
2019-03-27T01:18:04.520Z,12.27
2019-03-27T01:20:32.762Z,11.83
2019-03-27T01:23:00.998Z,11.97
2019-03-27T01:25:29.224Z,8.73
2019-03-27T01:27:57.478Z,10.57
2019-03-27T01:30:25.713Z,10.27
2019-03-27T01:32:53.969Z,9.00
2019-03-27T01:35:22.189Z,11.50
2019-03-27T01:37:50.413Z,12.67
2019-03-27T01:40:18.663Z,12.07
2019-03-27T01:42:46.889Z,11.30
2019-03-27T01:45:15.150Z,12.00
2019-03-27T01:47:43.373Z,12.90
2019-03-27T01:50:11.623Z,11.90
2019-03-27T01:52:39.846Z,12.63
2019-03-27T01:55:08.260Z,11.83
2019-03-27T01:57:36.549Z,12.50
2019-03-27T02:00:06.073Z,11.50
2019-03-27T02:02:34.372Z,10.20
2019-03-27T02:05:02.686Z,13.40
2019-03-27T02:07:31.239Z,11.37
2019-03-27T02:09:59.812Z,11.97
2019-03-27T02:12:28.032Z,14.13
2019-03-27T02:14:56.284Z,12.57
2019-03-27T02:17:24.573Z,13.50
2019-03-27T02:19:52.890Z,10.57
2019-03-27T02:22:21.108Z,13.03
2019-03-27T02:24:49.352Z,11.77
2019-03-27T02:27:17.897Z,12.90
2019-03-27T02:29:46.148Z,12.37
2019-03-27T02:32:14.512Z,13.20
2019-03-27T02:34:43.175Z,12.87
2019-03-27T02:37:11.422Z,9.70
2019-03-27T02:39:39.642Z,12.13
2019-03-27T02:42:07.890Z,12.17
2019-03-27T02:44:36.109Z,13.40
2019-03-27T02:47:04.357Z,9.93
2019-03-27T02:49:32.577Z,11.13
2019-03-27T02:52:01.148Z,12.77
2019-03-27T02:54:29.364Z,11.87
2019-03-27T02:56:57.681Z,12.13
2019-03-27T02:59:25.903Z,10.10
2019-03-27T03:01:54.161Z,11.10
2019-03-27T03:04:22.697Z,13.20
2019-03-27T03:06:50.937Z,11.53
2019-03-27T03:09:19.157Z,11.43
2019-03-27T03:11:47.408Z,13.33
2019-03-27T03:14:15.625Z,10.83
2019-03-27T03:16:43.949Z,12.97
2019-03-27T03:19:12.170Z,12.30
2019-03-27T03:21:40.754Z,12.60
2019-03-27T03:24:08.964Z,11.47
2019-03-27T03:26:37.284Z,13.93
2019-03-27T03:29:05.515Z,12.37
2019-03-27T03:31:34.093Z,14.23
2019-03-27T03:34:02.316Z,14.63
2019-03-27T03:36:30.658Z,13.23
2019-03-27T03:38:58.873Z,11.90
2019-03-27T03:41:27.188Z,13.87
2019-03-27T03:43:55.405Z,12.77
2019-03-27T03:46:24.056Z,13.33
2019-03-27T03:48:52.277Z,13.10
2019-03-27T03:51:20.564Z,11.97
2019-03-27T03:53:48.808Z,13.03
2019-03-27T03:56:17.289Z,13.10
2019-03-27T03:58:47.809Z,12.13
2019-03-27T04:01:17.891Z,13.70
2019-03-27T04:03:46.908Z,13.53
2019-03-27T04:06:15.130Z,12.27
2019-03-27T04:08:43.698Z,12.60
2019-03-27T04:11:11.916Z,12.50
2019-03-27T04:13:40.493Z,13.00
2019-03-27T04:16:08.717Z,12.70
2019-03-27T04:18:36.956Z,13.30
2019-03-27T04:21:05.178Z,12.17
2019-03-27T04:23:33.420Z,12.57
2019-03-27T04:26:09.613Z,12.43
2019-03-27T04:28:31.865Z,14.97
2019-03-27T04:31:00.082Z,11.90
2019-03-27T04:33:28.327Z,12.83
2019-03-27T04:35:56.540Z,14.10
2019-03-27T04:38:24.788Z,12.83
2019-03-27T04:40:53.000Z,13.57
2019-03-27T04:43:21.273Z,12.13
2019-03-27T04:45:49.475Z,13.20
2019-03-27T04:48:17.725Z,14.03
2019-03-27T04:50:45.944Z,13.97
2019-03-27T04:53:14.194Z,11.63
2019-03-27T04:55:42.406Z,14.77
2019-03-27T04:58:10.653Z,14.73
2019-03-27T05:00:39.269Z,12.30
2019-03-27T05:03:07.516Z,12.87
2019-03-27T05:05:35.745Z,13.93
2019-03-27T05:08:04.393Z,13.87
2019-03-27T05:10:32.608Z,14.93
2019-03-27T05:13:01.217Z,13.13
2019-03-27T05:15:29.792Z,14.43
2019-03-27T05:17:58.011Z,13.77
2019-03-27T05:20:28.665Z,13.93
2019-03-27T05:22:56.124Z,14.93
2019-03-27T05:25:24.709Z,15.23
2019-03-27T05:27:53.245Z,13.93
2019-03-27T05:30:28.829Z,15.40
2019-03-27T05:32:57.312Z,14.57
2019-03-27T05:35:25.636Z,14.30
2019-03-27T05:37:53.856Z,14.03
2019-03-27T05:40:22.104Z,13.97
2019-03-27T05:43:00.702Z,13.10
2019-03-27T05:45:20.216Z,13.87
2019-03-27T05:47:58.895Z,15.90
2019-03-27T05:50:18.417Z,15.63
2019-03-27T05:52:46.544Z,14.80
2019-03-27T05:55:15.193Z,15.20
2019-03-27T05:57:43.736Z,13.70
2019-03-27T06:00:13.525Z,13.70
2019-03-27T06:02:41.745Z,15.07
2019-03-27T06:05:10.389Z,16.17
2019-03-27T06:07:38.940Z,14.10
2019-03-27T06:10:07.753Z,14.70
2019-03-27T06:12:35.968Z,15.13
2019-03-27T06:15:06.585Z,15.43
2019-03-27T06:17:34.802Z,15.37
2019-03-27T06:20:03.620Z,14.40
2019-03-27T06:22:32.160Z,15.20
2019-03-27T06:25:00.425Z,14.97
2019-03-27T06:27:28.641Z,15.43
2019-03-27T06:29:56.885Z,15.13
2019-03-27T06:32:25.100Z,14.27
2019-03-27T06:34:53.345Z,12.67
2019-03-27T06:37:21.889Z,15.47
2019-03-27T06:39:50.464Z,16.07
2019-03-27T06:42:19.012Z,13.93
2019-03-27T06:44:47.333Z,15.47
2019-03-27T06:47:15.548Z,15.23
2019-03-27T06:49:43.789Z,14.77
2019-03-27T06:52:12.004Z,14.93
2019-03-27T06:54:40.585Z,15.33
2019-03-27T06:57:08.796Z,14.23
2019-03-27T06:59:37.039Z,16.40
2019-03-27T07:02:05.588Z,16.87
2019-03-27T07:04:34.167Z,14.87
2019-03-27T07:07:02.714Z,16.63
2019-03-27T07:09:31.263Z,15.20
2019-03-27T07:11:59.835Z,14.70
2019-03-27T07:14:28.380Z,14.03
2019-03-27T07:16:56.633Z,14.13
2019-03-27T07:19:25.182Z,15.10
2019-03-27T07:21:53.759Z,14.70
2019-03-27T07:24:22.301Z,14.23
2019-03-27T07:26:50.553Z,11.30
2019-03-27T07:29:19.352Z,14.40
2019-03-27T07:31:48.042Z,14.30
2019-03-27T07:34:16.261Z,14.43
2019-03-27T07:36:44.843Z,16.20
2019-03-27T07:39:13.214Z,15.07
2019-03-27T07:41:41.784Z,14.93
2019-03-27T07:44:10.327Z,14.00
2019-03-27T07:46:38.581Z,15.20
2019-03-27T07:49:06.868Z,16.03
2019-03-27T07:51:35.453Z,15.07
2019-03-27T07:54:04.334Z,14.00
2019-03-27T07:56:32.899Z,13.70
2019-03-27T07:59:01.511Z,15.50
2019-03-27T08:01:30.085Z,14.87
2019-03-27T08:03:58.308Z,13.67
2019-03-27T08:06:26.629Z,14.37
2019-03-27T08:08:54.945Z,10.43
2019-03-27T08:11:23.602Z,14.13
2019-03-27T08:13:52.275Z,13.90
2019-03-27T08:16:20.847Z,14.30
2019-03-27T08:18:49.058Z,15.20
2019-03-27T08:21:17.701Z,11.93
2019-03-27T08:23:46.245Z,14.50
2019-03-27T08:26:14.829Z,12.23
2019-03-27T08:28:43.377Z,13.07
2019-03-27T08:31:11.995Z,12.97
2019-03-27T08:33:40.569Z,14.07
2019-03-27T08:36:08.802Z,13.13
2019-03-27T08:38:37.045Z,12.87
2019-03-27T08:41:05.732Z,13.20
2019-03-27T08:43:34.372Z,13.13
2019-03-27T08:46:02.925Z,12.63
2019-03-27T08:48:31.577Z,12.40
2019-03-27T08:51:00.117Z,11.67
2019-03-27T08:53:28.696Z,11.30
2019-03-27T08:55:56.913Z,11.17
2019-03-27T08:58:25.490Z,12.40
2019-03-27T09:00:53.972Z,11.43
2019-03-27T09:03:22.682Z,9.47
2019-03-27T09:05:51.292Z,9.10
2019-03-27T09:08:20.033Z,8.13
2019-03-27T09:10:48.717Z,7.90
2019-03-27T09:13:17.028Z,7.80
2019-03-27T09:15:45.568Z,7.10
2019-03-27T09:18:16.802Z,7.60
2019-03-27T09:20:44.325Z,6.10
2019-03-27T09:23:12.896Z,5.90
2019-03-27T09:25:41.438Z,5.53
2019-03-27T09:28:10.013Z,6.20
2019-03-27T09:30:38.556Z,5.60
2019-03-27T09:33:07.188Z,5.13
2019-03-27T09:35:35.968Z,5.60
2019-03-27T09:38:04.678Z,5.37
2019-03-27T09:40:33.279Z,6.07
2019-03-27T09:43:01.857Z,5.23
2019-03-27T09:45:30.468Z,5.20
2019-03-27T09:47:58.680Z,5.60
2019-03-27T09:50:27.249Z,5.27
2019-03-27T09:52:55.804Z,5.60
2019-03-27T09:55:24.373Z,5.57
2019-03-27T09:57:52.913Z,5.80
2019-03-27T10:00:40.935Z,6.03
2019-03-27T10:03:09.480Z,5.87
2019-03-27T10:05:37.732Z,5.90
2019-03-27T10:08:06.269Z,4.53
2019-03-27T10:10:34.978Z,5.37
2019-03-27T10:13:04.555Z,5.33
2019-03-27T10:15:33.194Z,4.90
2019-03-27T10:18:01.793Z,5.20
2019-03-27T10:20:30.360Z,5.97
2019-03-27T10:22:58.904Z,5.60
2019-03-27T10:25:27.472Z,5.23
2019-03-27T10:27:56.013Z,4.17
2019-03-27T10:30:24.258Z,5.17
2019-03-27T10:32:52.793Z,4.70
2019-03-27T10:35:21.360Z,4.93
2019-03-27T10:37:49.892Z,4.57
2019-03-27T10:40:18.524Z,4.90
2019-03-27T10:42:47.065Z,4.87
2019-03-27T10:45:15.772Z,4.40
2019-03-27T10:47:44.307Z,5.17
2019-03-27T10:50:17.854Z,5.70
2019-03-27T10:52:43.370Z,4.53
2019-03-27T10:55:12.073Z,4.97
2019-03-27T10:57:40.611Z,5.90
2019-03-27T11:00:11.017Z,4.67
2019-03-27T11:02:39.554Z,5.00
2019-03-27T11:05:08.361Z,5.17
2019-03-27T11:07:36.901Z,4.37
2019-03-27T11:10:07.714Z,4.27
2019-03-27T11:12:36.252Z,4.30
2019-03-27T11:15:07.692Z,3.80
2019-03-27T11:17:36.229Z,3.57
2019-03-27T11:20:04.932Z,3.70
2019-03-27T11:22:33.468Z,3.57
2019-03-27T11:25:02.377Z,4.30
2019-03-27T11:27:30.944Z,4.07
2019-03-27T11:29:59.484Z,3.87
2019-03-27T11:32:28.048Z,4.10
2019-03-27T11:34:56.585Z,4.83
2019-03-27T11:37:24.831Z,3.90
2019-03-27T11:39:53.365Z,3.83
2019-03-27T11:42:21.933Z,4.13
2019-03-27T11:44:50.214Z,4.03
2019-03-27T11:47:18.781Z,3.87
2019-03-27T11:49:47.324Z,3.90
2019-03-27T11:52:15.917Z,3.43
2019-03-27T11:54:44.124Z,4.10
2019-03-27T11:57:12.697Z,3.70
2019-03-27T11:59:53.360Z,4.10
2019-03-27T12:02:11.590Z,3.50
2019-03-27T12:04:40.134Z,3.70
2019-03-27T12:07:08.714Z,3.60
2019-03-27T12:09:37.273Z,3.83
2019-03-27T12:12:05.516Z,3.63
2019-03-27T12:14:34.125Z,3.87
2019-03-27T12:17:02.765Z,4.10
2019-03-27T12:19:31.312Z,3.67
2019-03-27T12:21:59.877Z,3.50
2019-03-27T12:24:28.862Z,3.33
2019-03-27T12:26:57.665Z,3.67
2019-03-27T12:29:26.250Z,3.23
2019-03-27T12:31:54.777Z,3.30
2019-03-27T12:34:23.329Z,3.67
2019-03-27T12:36:51.903Z,3.50
2019-03-27T12:39:20.458Z,3.97
2019-03-27T12:41:49.016Z,3.20
2019-03-27T12:44:17.556Z,3.30
2019-03-27T12:46:45.839Z,3.50
2019-03-27T12:49:14.372Z,3.80
2019-03-27T12:51:42.980Z,3.70
2019-03-27T12:54:11.556Z,3.63
2019-03-27T12:56:40.104Z,3.67
2019-03-27T12:59:08.745Z,3.60
2019-03-27T13:01:37.357Z,3.73
2019-03-27T13:04:05.597Z,3.93
2019-03-27T13:06:34.213Z,3.87
2019-03-27T13:09:02.786Z,4.20
2019-03-27T13:11:31.319Z,3.90
2019-03-27T13:13:59.896Z,3.93
2019-03-27T13:16:28.506Z,4.57
2019-03-27T13:18:57.072Z,4.47
2019-03-27T13:21:26.944Z,3.30
2019-03-27T13:23:55.699Z,4.23
2019-03-27T13:26:24.236Z,4.47
2019-03-27T13:28:52.810Z,3.70
2019-03-27T13:31:21.453Z,3.47
2019-03-27T13:33:50.558Z,4.40
2019-03-27T13:36:19.242Z,4.50
2019-03-27T13:38:47.885Z,4.03
2019-03-27T13:41:16.169Z,4.70
2019-03-27T13:43:44.741Z,4.30
2019-03-27T13:46:13.284Z,4.23
2019-03-27T13:48:41.992Z,4.23
2019-03-27T13:51:10.532Z,4.30
2019-03-27T13:53:39.103Z,4.03
2019-03-27T13:56:07.644Z,4.40
2019-03-27T13:58:35.884Z,4.40
2019-03-27T14:01:04.573Z,4.60
2019-03-27T14:03:33.145Z,4.43
2019-03-27T14:06:01.691Z,4.23
2019-03-27T14:08:30.228Z,4.80
2019-03-27T14:10:58.883Z,4.70
2019-03-27T14:13:27.488Z,4.63
2019-03-27T14:15:56.068Z,4.50
2019-03-27T14:18:24.612Z,4.63
2019-03-27T14:20:53.179Z,4.60
2019-03-27T14:23:21.732Z,4.50
2019-03-27T14:25:50.304Z,4.37
2019-03-27T14:28:18.851Z,4.60
2019-03-27T14:30:54.274Z,5.07
2019-03-27T14:33:23.044Z,4.67
2019-03-27T14:35:52.249Z,4.30
2019-03-27T14:38:20.877Z,4.13
2019-03-27T14:40:49.576Z,4.60
2019-03-27T14:43:18.260Z,5.00
2019-03-27T14:45:46.833Z,4.60
2019-03-27T14:48:15.377Z,4.67
2019-03-27T14:50:43.945Z,4.43
2019-03-27T14:53:12.624Z,4.23
2019-03-27T14:55:41.197Z,4.93
2019-03-27T14:58:09.832Z,4.93
2019-03-27T15:00:38.450Z,4.37
2019-03-27T15:03:07.027Z,4.30
2019-03-27T15:05:35.268Z,4.23
2019-03-27T15:08:04.514Z,4.70
2019-03-27T15:10:33.235Z,4.17
2019-03-27T15:13:01.781Z,4.17
2019-03-27T15:15:30.345Z,4.70
2019-03-27T15:17:58.584Z,4.60
2019-03-27T15:20:27.220Z,4.30
2019-03-27T15:22:55.763Z,4.07
2019-03-27T15:25:24.337Z,4.77
2019-03-27T15:27:52.869Z,4.63
2019-03-27T15:30:21.713Z,4.80
2019-03-27T15:32:50.263Z,4.93
2019-03-27T15:35:18.816Z,4.73
2019-03-27T15:37:47.361Z,4.80
2019-03-27T15:40:18.032Z,4.67
2019-03-27T15:42:46.603Z,4.27
2019-03-27T15:45:15.277Z,5.50
2019-03-27T15:47:43.817Z,5.60
2019-03-27T15:50:12.533Z,4.60
2019-03-27T15:52:41.068Z,4.93
2019-03-27T15:55:09.677Z,4.50
2019-03-27T15:57:37.921Z,4.70
2019-03-27T16:00:06.793Z,5.07
2019-03-27T16:02:35.380Z,5.90
2019-03-27T16:05:05.257Z,5.10
2019-03-27T16:07:33.821Z,5.80
2019-03-27T16:10:02.361Z,4.70
2019-03-27T16:12:31.004Z,4.63
2019-03-27T16:14:59.541Z,4.63
2019-03-27T16:17:47.133Z,4.70
2019-03-27T16:20:15.506Z,4.77
2019-03-27T16:22:50.667Z,4.73
2019-03-27T16:25:14.786Z,5.00
2019-03-27T16:27:43.355Z,5.03
2019-03-27T16:30:12.236Z,5.13
2019-03-27T16:32:40.841Z,4.73
2019-03-27T16:35:09.652Z,5.37
2019-03-27T16:37:38.256Z,5.20
2019-03-27T16:40:07.909Z,5.23
2019-03-27T16:42:36.233Z,6.23
2019-03-27T16:45:06.882Z,6.50
2019-03-27T16:47:35.602Z,7.67
2019-03-27T16:50:06.653Z,7.33
2019-03-27T16:52:35.292Z,6.50
2019-03-27T16:55:06.674Z,7.60
2019-03-27T16:57:35.307Z,7.57
2019-03-27T17:00:07.717Z,5.60
2019-03-27T17:02:36.033Z,6.00
2019-03-27T17:05:06.519Z,6.03
2019-03-27T17:07:34.761Z,6.03
2019-03-27T17:10:03.968Z,6.10
2019-03-27T17:12:32.540Z,6.33
2019-03-27T17:15:01.084Z,7.70
2019-03-27T17:17:29.654Z,8.50
2019-03-27T17:19:58.196Z,7.97
2019-03-27T17:22:26.444Z,10.90
2019-03-27T17:24:56.155Z,8.73
2019-03-27T17:27:24.932Z,15.80
2019-03-27T17:29:53.495Z,7.10
2019-03-27T17:32:22.060Z,5.40
2019-03-27T17:34:52.003Z,5.67
2019-03-27T17:37:20.812Z,6.43
2019-03-27T17:39:49.317Z,5.87
2019-03-27T17:42:17.905Z,6.17
2019-03-27T17:44:46.128Z,8.20
2019-03-27T17:47:14.701Z,7.03
2019-03-27T17:49:43.245Z,7.70
2019-03-27T17:52:11.821Z,7.07
2019-03-27T17:54:40.362Z,8.73
2019-03-27T17:57:08.942Z,8.80
2019-03-27T17:59:37.480Z,9.67
2019-03-27T18:02:05.768Z,8.80
2019-03-27T18:04:34.009Z,6.93
2019-03-27T18:07:02.616Z,9.93
2019-03-27T18:09:31.200Z,8.40
2019-03-27T18:12:00.108Z,7.33
2019-03-27T18:14:28.677Z,6.60
2019-03-27T18:16:57.292Z,6.20
2019-03-27T18:19:25.872Z,6.27
2019-03-27T18:22:06.998Z,6.60
2019-03-27T18:24:24.650Z,6.27
2019-03-27T18:26:53.185Z,6.47
2019-03-27T18:29:21.833Z,6.07
2019-03-27T18:31:50.509Z,7.13
2019-03-27T18:34:19.085Z,9.10
2019-03-27T18:36:47.629Z,8.93
2019-03-27T18:39:16.205Z,8.37
2019-03-27T18:41:44.744Z,8.43
2019-03-27T18:44:13.324Z,10.00
2019-03-27T18:46:41.868Z,11.27
2019-03-27T18:49:10.732Z,9.30
2019-03-27T18:51:39.375Z,6.90
2019-03-27T18:54:08.028Z,8.30
2019-03-27T18:56:36.553Z,9.27
2019-03-27T18:59:05.204Z,9.53
2019-03-27T19:01:33.750Z,10.30
2019-03-27T19:04:02.402Z,10.40
2019-03-27T19:06:30.944Z,10.93
2019-03-27T19:08:59.789Z,10.73
2019-03-27T19:11:28.333Z,10.60
2019-03-27T19:13:56.878Z,9.67
2019-03-27T19:16:25.449Z,8.30
2019-03-27T19:18:53.996Z,8.93
2019-03-27T19:21:22.708Z,7.73
2019-03-27T19:23:51.253Z,8.07
2019-03-27T19:26:19.827Z,8.60
2019-03-27T19:28:48.377Z,7.73
2019-03-27T19:31:16.945Z,7.93
2019-03-27T19:33:45.490Z,7.90
2019-03-27T19:36:14.069Z,7.97
2019-03-27T19:38:42.605Z,8.73
2019-03-27T19:41:11.260Z,8.37
2019-03-27T19:43:39.792Z,8.57
2019-03-27T19:46:08.084Z,8.77
2019-03-27T19:48:36.619Z,10.20
2019-03-27T19:51:05.264Z,9.23
2019-03-27T19:53:33.818Z,9.70
2019-03-27T19:56:02.400Z,9.00
2019-03-27T19:58:30.942Z,9.63
2019-03-27T20:00:59.521Z,10.30
2019-03-27T20:03:27.842Z,9.40
2019-03-27T20:05:56.491Z,10.73
2019-03-27T20:08:25.100Z,11.23
2019-03-27T20:10:53.349Z,10.83
2019-03-27T20:13:21.896Z,8.70
2019-03-27T20:15:50.541Z,8.87
2019-03-27T20:18:19.156Z,8.47
2019-03-27T20:20:47.729Z,8.30
2019-03-27T20:23:16.340Z,9.37
2019-03-27T20:25:44.921Z,8.70
2019-03-27T20:28:13.533Z,8.93
2019-03-27T20:30:42.108Z,8.90
2019-03-27T20:33:10.682Z,7.93
2019-03-27T20:35:39.232Z,6.53
2019-03-27T20:38:07.804Z,6.17
2019-03-27T20:40:36.357Z,6.17
2019-03-27T20:43:05.005Z,7.00
2019-03-27T20:45:33.541Z,6.50
2019-03-27T20:48:02.254Z,5.80
2019-03-27T20:50:30.824Z,5.97
2019-03-27T20:52:59.063Z,6.00
2019-03-27T20:55:30.730Z,5.70
2019-03-27T20:57:58.137Z,6.37
2019-03-27T21:00:26.812Z,6.07
2019-03-27T21:02:55.376Z,7.53
2019-03-27T21:05:23.922Z,6.90
2019-03-27T21:07:52.565Z,6.97
2019-03-27T21:10:21.098Z,6.10
2019-03-27T21:12:49.668Z,6.77
2019-03-27T21:15:18.207Z,6.40
2019-03-27T21:17:46.780Z,8.40
2019-03-27T21:20:15.461Z,8.20
2019-03-27T21:22:43.711Z,9.20
2019-03-27T21:25:12.392Z,9.03
2019-03-27T21:27:40.968Z,10.50
2019-03-27T21:30:09.360Z,9.23
2019-03-27T21:32:37.929Z,8.97
2019-03-27T21:35:07.310Z,8.37
2019-03-27T21:37:35.951Z,7.60
2019-03-27T21:40:07.136Z,6.83
2019-03-27T21:42:35.773Z,6.93
2019-03-27T21:45:07.763Z,7.37
2019-03-27T21:47:36.332Z,7.13
2019-03-27T21:50:06.684Z,7.13
2019-03-27T21:52:35.231Z,6.97
2019-03-27T21:55:04.737Z,6.40
2019-03-27T21:57:32.949Z,7.03
2019-03-27T22:00:01.230Z,6.97
2019-03-27T22:02:29.745Z,7.03
2019-03-27T22:04:58.332Z,7.33
2019-03-27T22:07:26.924Z,7.20
2019-03-27T22:09:55.503Z,8.03
2019-03-27T22:12:24.108Z,8.47
2019-03-27T22:14:52.753Z,7.67
2019-03-27T22:17:21.370Z,8.60
2019-03-27T22:19:49.941Z,8.33
2019-03-27T22:22:18.548Z,7.87
2019-03-27T22:24:47.191Z,8.77
2019-03-27T22:27:15.734Z,8.40
2019-03-27T22:29:44.309Z,7.63
2019-03-27T22:32:12.854Z,8.07
2019-03-27T22:34:44.228Z,7.80
2019-03-27T22:37:11.623Z,8.20
2019-03-27T22:39:40.188Z,7.50
2019-03-27T22:42:08.728Z,8.03
2019-03-27T22:44:37.297Z,7.77
2019-03-27T22:47:05.844Z,7.53
2019-03-27T22:49:34.457Z,8.50
2019-03-27T22:52:03.029Z,8.33
2019-03-27T22:54:31.568Z,8.40
2019-03-27T22:57:00.137Z,7.90
2019-03-27T22:59:28.676Z,7.93
2019-03-27T23:01:57.459Z,7.90
2019-03-27T23:04:25.998Z,8.07
2019-03-27T23:06:54.573Z,8.20
2019-03-27T23:09:23.116Z,7.60
2019-03-27T23:11:51.689Z,7.63
2019-03-27T23:14:20.230Z,6.97
2019-03-27T23:16:48.816Z,7.13
2019-03-27T23:19:17.356Z,7.00
2019-03-27T23:21:45.928Z,8.13
2019-03-27T23:24:14.474Z,8.00
2019-03-27T23:26:42.711Z,8.27
2019-03-27T23:29:10.928Z,7.97
2019-03-27T23:31:39.587Z,8.00
2019-03-27T23:34:07.821Z,7.93
2019-03-27T23:36:36.029Z,7.83
2019-03-27T23:39:05.818Z,8.00
2019-03-27T23:41:34.361Z,8.17
2019-03-27T23:44:02.681Z,8.53
2019-03-27T23:46:30.893Z,7.53
2019-03-27T23:48:59.465Z,8.13
2019-03-27T23:51:28.009Z,7.83
2019-03-27T23:53:56.585Z,7.77
2019-03-27T23:56:25.200Z,7.07
2019-03-27T23:58:53.445Z,7.00
